Time;durP1;ratioP1;P1;durP2;ratioP2;P2;SDS_P1;SDS_P2;PMS_P1;PMS_P2;Temp;Humidity;BMP_temperature;BMP_pressure;BME280_temperature;BME280_humidity;BME280_pressure;Samples;Min_cycle;Max_cycle;Signal;HPM_P1;HPM_P2
2023/01/02 00:00:09;;;;;;;3.00;2.00;;;;;;;12.11;76.41;154470.81;4998628;28;20463;-84
2023/01/02 00:02:59;;;;;;;2.57;1.70;;;;;;;12.07;80.37;154460.41;4993892;28;20525;-84
2023/01/02 00:05:45;;;;;;;1.57;1.23;;;;;;;12.05;80.68;154455.25;4995184;28;20592;-84
2023/01/02 00:08:30;;;;;;;2.47;1.90;;;;;;;12.06;76.18;154457.84;4975965;28;20439;-84
2023/01/02 00:11:15;;;;;;;2.20;1.70;;;;;;;12.05;78.75;154453.94;4975362;28;20891;-84
2023/01/02 00:14:01;;;;;;;3.60;1.70;;;;;;;12.04;75.98;154452.69;4994459;28;20866;-84
2023/01/02 00:16:46;;;;;;;3.17;1.80;;;;;;;12.02;78.90;154447.44;4994186;28;20517;-84
2023/01/02 00:19:33;;;;;;;2.53;1.70;;;;;;;12.03;76.26;154450.06;4996876;28;20595;-84
2023/01/02 00:22:18;;;;;;;2.10;1.60;;;;;;;12.08;78.08;154463.03;4997272;28;20423;-84
2023/01/02 00:25:04;;;;;;;2.00;1.30;;;;;;;12.03;77.00;154450.06;4993453;28;20573;-84
2023/01/02 00:27:50;;;;;;;4.83;2.50;;;;;;;12.01;76.31;154444.91;4993955;28;20395;-84
2023/01/02 00:30:37;;;;;;;3.00;1.70;;;;;;;12.02;75.50;154446.19;4994887;28;20930;-85
2023/01/02 00:33:22;;;;;;;4.33;1.73;;;;;;;12.01;75.81;154444.91;4996390;28;20461;-84
2023/01/02 00:36:10;;;;;;;2.73;1.77;;;;;;;11.97;76.76;154434.50;5007960;28;20425;-84
2023/01/02 00:38:56;;;;;;;3.30;1.50;;;;;;;11.98;82.69;154435.81;4996351;28;20469;-84
2023/01/02 00:41:41;;;;;;;3.00;1.80;;;;;;;11.95;78.86;154428.00;5007808;28;20874;-84
2023/01/02 00:44:27;;;;;;;2.57;1.77;;;;;;;11.92;76.85;154421.53;5004413;28;20436;-84
2023/01/02 00:47:12;;;;;;;2.20;1.43;;;;;;;11.95;77.39;154429.31;4994503;28;20589;-84
2023/01/02 00:49:58;;;;;;;4.70;1.80;;;;;;;11.96;78.24;154431.94;4992886;28;20434;-84
2023/01/02 00:52:46;;;;;;;2.07;1.60;;;;;;;11.95;78.31;154428.00;5017617;28;20457;-85
2023/01/02 00:55:31;;;;;;;5.00;2.70;;;;;;;12.01;74.54;154444.91;4993957;28;20470;-84
2023/01/02 00:58:17;;;;;;;3.80;1.97;;;;;;;12.02;73.91;154447.44;4989841;28;20446;-84
2023/01/02 01:01:02;;;;;;;2.30;1.60;;;;;;;12.06;74.96;154457.84;5002225;28;21072;-84
2023/01/02 01:03:48;;;;;;;3.67;1.77;;;;;;;12.10;73.91;154468.19;4995526;28;20517;-84
2023/01/02 01:06:33;;;;;;;2.97;1.63;;;;;;;12.08;75.60;154463.03;4990837;28;20461;-84
2023/01/02 01:09:20;;;;;;;2.27;1.57;;;;;;;12.07;73.17;154460.41;4993571;28;20485;-84
2023/01/02 01:12:05;;;;;;;2.50;1.87;;;;;;;12.08;73.14;154461.72;5010350;28;20765;-84
2023/01/02 01:14:50;;;;;;;2.97;1.60;;;;;;;12.07;73.99;154460.41;5003967;28;20478;-85
2023/01/02 01:17:36;;;;;;;3.67;1.97;;;;;;;12.03;75.17;154450.06;5009991;28;20533;-84
2023/01/02 01:20:22;;;;;;;2.80;1.47;;;;;;;12.00;75.33;154442.28;5006882;28;20961;-84
2023/01/02 01:23:08;;;;;;;3.17;1.73;;;;;;;12.04;73.35;154452.69;4991844;28;20435;-84
2023/01/02 01:25:55;;;;;;;3.07;1.73;;;;;;;12.06;73.66;154457.84;4993072;28;20497;-84
2023/01/02 01:28:40;;;;;;;3.43;1.93;;;;;;;12.01;76.73;154444.91;5007224;28;20954;-84
2023/01/02 01:31:25;;;;;;;2.33;1.67;;;;;;;11.98;74.13;154435.81;5013553;28;20552;-84
2023/01/02 01:34:11;;;;;;;2.43;1.27;;;;;;;11.94;77.47;154426.72;4993764;28;20481;-84
2023/01/02 01:36:57;;;;;;;1.70;1.27;;;;;;;11.86;75.55;154405.97;4998375;28;20997;-84
2023/01/02 01:39:42;;;;;;;3.03;1.67;;;;;;;11.87;75.61;154408.56;4995704;28;20944;-84
2023/01/02 01:42:33;;;;;;;4.13;1.80;;;;;;;11.84;76.35;154400.78;4992025;28;20590;-84
2023/01/02 01:45:18;;;;;;;2.87;1.80;;;;;;;11.86;75.25;154405.97;4993602;28;20965;-84
2023/01/02 01:48:04;;;;;;;2.00;1.63;;;;;;;11.84;75.35;154399.50;4998830;28;20880;-84
2023/01/02 01:50:49;;;;;;;2.37;1.73;;;;;;;11.82;75.18;154394.31;5002473;28;20837;-84
2023/01/02 01:53:34;;;;;;;2.10;1.33;;;;;;;11.82;75.76;154394.31;4973178;28;20434;-84
2023/01/02 01:56:20;;;;;;;4.60;2.10;;;;;;;11.79;76.52;154387.84;4997425;28;20425;-84
2023/01/02 01:59:07;;;;;;;2.00;1.40;;;;;;;11.75;76.05;154377.50;5012438;28;20478;-84
2023/01/02 02:01:52;;;;;;;4.90;2.07;;;;;;;11.76;76.63;154378.75;4993270;28;20466;-84
2023/01/02 02:04:38;;;;;;;4.70;1.70;;;;;;;11.75;76.71;154376.19;5004340;28;20454;-84
2023/01/02 02:07:23;;;;;;;2.23;1.70;;;;;;;11.78;75.54;154383.97;4980794;28;20513;-84
2023/01/02 02:10:10;;;;;;;1.83;1.50;;;;;;;11.78;75.14;154383.97;4996255;28;20444;-84
2023/01/02 02:12:55;;;;;;;2.53;1.53;;;;;;;11.77;75.00;154381.38;4996199;28;20451;-84
2023/01/02 02:15:47;;;;;;;2.20;1.50;;;;;;;11.79;75.16;154387.84;4994027;28;20430;-85
2023/01/02 02:18:45;;;;;;;2.80;1.83;;;;;;;11.87;75.61;154407.28;4992040;28;20451;-84
2023/01/02 02:21:45;;;;;;;2.37;1.90;;;;;;;11.87;76.39;154407.28;5006175;28;20581;-84
2023/01/02 02:24:49;;;;;;;2.23;1.40;;;;;;;11.92;75.41;154421.53;4984037;28;20443;-84
2023/01/02 02:27:50;;;;;;;3.03;1.47;;;;;;;11.88;75.39;154411.19;4982451;28;20453;-84
2023/01/02 02:30:39;;;;;;;2.40;1.77;;;;;;;11.92;75.31;154420.22;4993535;28;20443;-84
2023/01/02 02:33:35;;;;;;;3.67;1.60;;;;;;;11.97;75.86;154434.50;4995860;28;20466;-84
2023/01/02 02:36:26;;;;;;;2.30;1.87;;;;;;;11.95;76.56;154429.31;4989337;28;20497;-84
2023/01/02 02:39:20;;;;;;;2.13;1.47;;;;;;;11.91;75.02;154417.66;4979792;28;20477;-84
2023/01/02 02:42:11;;;;;;;2.00;1.33;;;;;;;11.91;76.05;154417.66;4987382;28;20440;-84
2023/01/02 02:45:00;;;;;;;2.57;1.50;;;;;;;11.93;75.04;154424.16;4990926;28;20444;-84
2023/01/02 02:47:51;;;;;;;2.77;1.83;;;;;;;11.91;75.87;154418.97;4993003;28;20455;-85
2023/01/02 02:50:39;;;;;;;3.20;2.00;;;;;;;11.92;76.60;154420.22;4997092;28;20421;-84
2023/01/02 02:53:26;;;;;;;3.47;1.80;;;;;;;11.88;78.38;154411.19;5006227;28;20441;-84
2023/01/02 02:56:14;;;;;;;2.17;1.80;;;;;;;11.88;80.51;154409.88;4994569;28;20586;-84
2023/01/02 02:58:59;;;;;;;2.87;1.60;;;;;;;11.83;77.05;154396.94;5006964;28;20528;-84
2023/01/02 03:01:44;;;;;;;2.40;1.80;;;;;;;11.81;77.98;154391.75;5016220;28;20398;-84
2023/01/02 03:04:31;;;;;;;2.37;1.47;;;;;;;11.83;75.75;154396.94;5001152;28;20465;-84
2023/01/02 03:07:22;;;;;;;3.30;1.70;;;;;;;11.85;75.58;154402.09;5001136;28;20683;-84
2023/01/02 03:10:18;;;;;;;2.20;1.50;;;;;;;11.93;74.53;154424.16;4997256;28;20791;-84
2023/01/02 03:13:10;;;;;;;3.47;1.90;;;;;;;11.92;75.01;154421.53;4993794;28;20486;-84
2023/01/02 03:16:00;;;;;;;3.80;1.77;;;;;;;11.90;76.48;154416.38;4998384;28;20795;-84
2023/01/02 03:18:53;;;;;;;2.40;1.70;;;;;;;11.88;77.46;154411.19;4999302;28;20461;-84
2023/01/02 03:21:41;;;;;;;2.33;1.53;;;;;;;11.96;74.16;154431.94;4996132;28;20783;-84
2023/01/02 03:24:28;;;;;;;2.83;1.63;;;;;;;11.94;75.08;154426.72;4980954;28;20453;-84
2023/01/02 03:27:16;;;;;;;3.60;1.73;;;;;;;11.97;74.35;154433.19;4988809;28;20489;-84
2023/01/02 03:30:04;;;;;;;1.93;1.50;;;;;;;12.02;74.53;154447.44;4994844;28;20427;-84
2023/01/02 03:32:52;;;;;;;2.70;1.50;;;;;;;11.99;74.83;154439.66;4992523;28;20524;-84
2023/01/02 03:35:41;;;;;;;2.43;1.30;;;;;;;11.97;76.11;154434.50;5002694;28;20421;-84
2023/01/02 03:38:29;;;;;;;2.57;1.40;;;;;;;11.97;73.36;154434.50;4999719;28;20803;-84
2023/01/02 03:41:18;;;;;;;2.60;1.40;;;;;;;11.96;74.15;154430.63;4985349;28;20480;-84
2023/01/02 03:44:03;;;;;;;2.13;1.53;;;;;;;11.95;79.72;154428.00;4996946;28;20482;-84
2023/01/02 03:46:52;;;;;;;1.90;1.70;;;;;;;11.90;76.99;154416.38;4975506;28;20404;-84
2023/01/02 03:49:41;;;;;;;3.60;1.90;;;;;;;11.84;79.91;154400.78;4992476;28;20609;-84
2023/01/02 03:52:27;;;;;;;4.23;1.30;;;;;;;11.81;78.08;154393.00;4999281;28;20461;-84
2023/01/02 03:55:13;;;;;;;4.70;2.07;;;;;;;11.82;77.91;154395.63;4997290;28;20985;-84
2023/01/02 03:58:03;;;;;;;3.57;1.60;;;;;;;11.79;77.78;154386.53;4996543;28;20458;-84
2023/01/02 04:00:54;;;;;;;2.37;1.37;;;;;;;11.77;76.37;154382.66;4981175;28;20489;-84
2023/01/02 04:03:41;;;;;;;2.27;1.40;;;;;;;11.79;77.20;154387.84;4999132;28;20436;-84
2023/01/02 04:06:32;;;;;;;2.67;1.57;;;;;;;11.74;76.54;154374.88;5014482;28;20550;-84
2023/01/02 04:09:21;;;;;;;3.80;2.27;;;;;;;11.75;77.00;154376.19;4980601;28;20447;-84
2023/01/02 04:12:10;;;;;;;2.53;1.40;;;;;;;11.72;75.84;154369.72;4992800;28;20430;-84
2023/01/02 04:14:59;;;;;;;1.90;1.60;;;;;;;11.69;79.22;154361.94;4992667;28;20494;-84
2023/01/02 04:17:47;;;;;;;2.90;1.67;;;;;;;11.62;79.03;154345.00;5003857;28;20445;-84
2023/01/02 04:20:35;;;;;;;2.53;1.67;;;;;;;11.60;76.74;154339.84;5008644;28;20599;-84
2023/01/02 04:23:25;;;;;;;2.20;1.73;;;;;;;11.59;77.49;154337.28;5015445;28;20512;-84
2023/01/02 04:26:13;;;;;;;2.80;1.93;;;;;;;11.61;81.04;154341.16;5001811;28;20439;-84
2023/01/02 04:28:59;;;;;;;2.70;1.60;;;;;;;11.56;81.42;154329.50;5014456;28;20991;-85
2023/01/02 04:31:47;;;;;;;3.77;1.80;;;;;;;11.52;78.53;154317.81;4993678;28;20985;-84
2023/01/02 04:34:35;;;;;;;2.37;1.43;;;;;;;11.50;78.90;154312.63;4998677;28;20863;-84
2023/01/02 04:37:29;;;;;;;3.33;1.63;;;;;;;11.50;79.51;154312.63;4986091;28;20469;-84
2023/01/02 04:40:18;;;;;;;2.90;1.80;;;;;;;11.47;80.84;154306.16;5005392;28;20472;-84
2023/01/02 04:43:05;;;;;;;2.17;1.50;;;;;;;11.49;79.65;154310.06;5006525;28;20883;-84
2023/01/02 04:45:51;;;;;;;3.13;1.90;;;;;;;11.51;80.94;154316.53;4983120;28;20453;-84
2023/01/02 04:48:37;;;;;;;3.03;1.53;;;;;;;11.45;79.39;154299.69;4981971;28;20479;-84
2023/01/02 04:51:23;;;;;;;4.73;2.17;;;;;;;11.41;79.39;154289.34;4986420;28;20426;-84
2023/01/02 04:54:10;;;;;;;3.10;1.73;;;;;;;11.43;80.73;154294.50;4993343;28;20450;-84
2023/01/02 04:56:55;;;;;;;3.57;1.97;;;;;;;11.39;77.90;154284.13;4997014;28;20418;-84
2023/01/02 04:59:41;;;;;;;2.00;1.40;;;;;;;11.41;78.85;154290.59;4992074;28;20438;-84
2023/01/02 05:02:27;;;;;;;3.67;1.77;;;;;;;11.37;79.50;154280.25;4998845;28;20442;-84
2023/01/02 05:05:13;;;;;;;3.43;2.10;;;;;;;11.38;78.58;154281.56;4993049;28;20434;-84
2023/01/02 05:07:58;;;;;;;2.57;1.77;;;;;;;11.40;83.53;154286.72;5007673;28;20432;-84
2023/01/02 05:10:44;;;;;;;5.63;2.07;;;;;;;11.31;82.77;154263.38;4996778;28;20458;-84
2023/01/02 05:13:29;;;;;;;4.50;2.10;;;;;;;11.29;80.80;154258.22;4992388;28;20596;-84
2023/01/02 05:16:14;;;;;;;3.50;2.10;;;;;;;11.29;81.21;154258.22;4993878;28;20409;-84
2023/01/02 05:19:01;;;;;;;2.70;1.57;;;;;;;11.27;80.07;154253.03;4993936;28;20473;-84
2023/01/02 05:24:49;;;;;;;2.67;1.50;;;;;;;11.26;80.14;154251.75;4971420;28;20486;-84
2023/01/02 05:27:35;;;;;;;2.30;1.40;;;;;;;11.25;77.90;154247.88;4990111;28;20446;-84
2023/01/02 05:30:21;;;;;;;4.70;2.03;;;;;;;11.27;79.44;154253.03;4993671;28;20470;-84
2023/01/02 05:33:06;;;;;;;2.50;1.60;;;;;;;11.23;80.90;154242.66;4972229;28;20435;-84
2023/01/02 05:35:53;;;;;;;2.67;1.90;;;;;;;11.22;78.85;154240.09;4974982;28;20443;-84
2023/01/02 05:38:39;;;;;;;1.93;1.53;;;;;;;11.20;79.87;154234.94;5000190;28;20467;-84
2023/01/02 05:41:24;;;;;;;4.70;1.37;;;;;;;11.21;78.68;154237.47;4992522;28;20462;-84
2023/01/02 05:44:10;;;;;;;2.93;1.63;;;;;;;11.20;78.81;154236.19;4993124;28;20783;-84
2023/01/02 05:46:56;;;;;;;3.13;1.80;;;;;;;11.20;77.98;154234.94;5001211;28;20616;-84
2023/01/02 05:49:41;;;;;;;3.37;1.50;;;;;;;11.23;77.84;154242.66;4976104;28;20434;-84
2023/01/02 05:52:28;;;;;;;3.10;1.70;;;;;;;11.23;78.15;154242.66;4993634;28;20970;-84
2023/01/02 05:55:13;;;;;;;2.40;1.67;;;;;;;11.21;81.40;154237.47;4998909;28;20984;-84
2023/01/02 05:58:01;;;;;;;3.40;1.90;;;;;;;11.18;77.96;154231.00;4997512;28;20457;-84
2023/01/02 06:00:46;;;;;;;2.80;1.80;;;;;;;11.18;77.25;154229.72;4991097;28;20462;-84
2023/01/02 06:03:32;;;;;;;2.57;1.93;;;;;;;11.19;76.38;154232.31;4973962;28;20454;-84
2023/01/02 06:06:20;;;;;;;2.40;1.57;;;;;;;11.22;76.95;154241.41;4980716;28;20451;-84
2023/01/02 06:09:07;;;;;;;2.53;1.50;;;;;;;11.19;76.01;154232.31;4981273;28;20573;-84
2023/01/02 06:11:52;;;;;;;4.43;1.90;;;;;;;11.17;76.27;154228.44;4986093;28;20443;-84
2023/01/02 06:14:38;;;;;;;2.13;1.60;;;;;;;11.18;79.42;154229.72;4989175;28;20596;-84
2023/01/02 06:17:23;;;;;;;5.33;1.90;;;;;;;11.13;78.12;154216.75;4990592;28;20485;-84
2023/01/02 06:20:10;;;;;;;2.30;2.10;;;;;;;11.08;78.80;154203.81;4991511;28;20882;-84
2023/01/02 06:22:55;;;;;;;4.63;1.77;;;;;;;11.09;78.17;154206.41;5000419;28;20452;-84
2023/01/02 06:25:42;;;;;;;6.03;2.17;;;;;;;11.07;78.60;154202.50;4983859;28;20494;-84
2023/01/02 06:28:28;;;;;;;2.80;1.90;;;;;;;11.04;79.82;154194.72;4989362;28;20525;-84
2023/01/02 06:31:14;;;;;;;2.23;1.90;;;;;;;11.09;80.50;154207.72;4987362;28;20438;-84
2023/01/02 06:34:02;;;;;;;4.33;2.00;;;;;;;11.06;80.63;154199.94;4990514;28;20584;-84
2023/01/02 06:36:47;;;;;;;4.93;1.90;;;;;;;11.02;78.29;154190.84;4985758;28;20441;-84
2023/01/02 06:39:33;;;;;;;2.80;2.10;;;;;;;11.04;79.67;154193.47;4990791;28;20555;-84
2023/01/02 06:42:20;;;;;;;3.77;1.67;;;;;;;11.05;78.51;154196.03;4988664;28;20491;-84
2023/01/02 06:45:06;;;;;;;3.67;2.53;;;;;;;11.02;78.30;154190.84;4983891;28;20934;-84
2023/01/02 06:47:56;;;;;;;3.93;2.10;;;;;;;11.01;78.60;154188.25;4983758;28;20468;-84
2023/01/02 06:50:41;;;;;;;2.80;2.50;;;;;;;10.98;78.35;154180.53;4998418;28;20486;-84
2023/01/02 06:53:27;;;;;;;3.07;2.17;;;;;;;10.94;81.64;154170.13;4983584;28;20509;-84
2023/01/02 06:56:14;;;;;;;2.90;2.20;;;;;;;10.91;82.25;154161.06;4982857;28;20477;-84
2023/01/02 06:59:01;;;;;;;2.00;1.60;;;;;;;10.89;80.12;154155.88;4986072;28;20450;-84
2023/01/02 07:01:46;;;;;;;4.30;2.57;;;;;;;10.89;80.36;154155.88;4987025;28;20466;-84
2023/01/02 07:04:32;;;;;;;3.47;2.30;;;;;;;10.88;80.40;154153.31;4987708;28;20452;-84
2023/01/02 07:07:17;;;;;;;3.87;2.20;;;;;;;10.85;83.13;154146.84;4986423;28;20468;-84
2023/01/02 07:10:02;;;;;;;2.90;1.83;;;;;;;10.85;80.73;154145.53;4983699;28;20437;-84
2023/01/02 07:12:47;;;;;;;3.50;1.90;;;;;;;10.86;79.19;154148.09;4996866;28;20443;-84
2023/01/02 07:15:35;;;;;;;3.10;1.70;;;;;;;10.84;80.14;154144.25;4982841;28;20443;-83
2023/01/02 07:18:20;;;;;;;3.40;2.10;;;;;;;10.85;78.96;154145.53;4985397;28;20965;-84
2023/01/02 07:21:06;;;;;;;2.23;1.97;;;;;;;10.87;79.89;154150.72;4983885;28;20551;-84
2023/01/02 07:23:52;;;;;;;2.13;1.47;;;;;;;10.92;77.67;154164.97;4982535;28;20958;-84
2023/01/02 07:26:37;;;;;;;3.50;2.10;;;;;;;11.06;77.29;154199.94;4986881;28;20594;-84
2023/01/02 07:29:22;;;;;;;3.27;2.00;;;;;;;11.10;76.29;154208.97;4990882;28;20532;-84
2023/01/02 07:32:09;;;;;;;4.63;2.10;;;;;;;11.15;77.05;154223.22;4985367;28;20460;-84
2023/01/02 07:34:55;;;;;;;4.67;2.10;;;;;;;11.24;77.79;154246.56;4989017;28;20829;-84
2023/01/02 07:37:40;;;;;;;5.63;2.30;;;;;;;11.34;74.56;154271.16;4984482;28;20444;-84
2023/01/02 07:40:27;;;;;;;2.43;1.90;;;;;;;11.41;76.67;154289.34;4984841;28;20452;-84
2023/01/02 07:43:13;;;;;;;3.67;2.17;;;;;;;11.47;74.73;154304.84;4986396;28;20514;-84
2023/01/02 07:46:02;;;;;;;3.10;1.83;;;;;;;11.49;72.25;154310.06;4983127;28;20446;-84
2023/01/02 07:48:49;;;;;;;3.70;2.00;;;;;;;11.55;74.01;154326.88;4982288;28;20470;-84
2023/01/02 07:51:34;;;;;;;3.20;1.70;;;;;;;11.59;72.39;154335.97;4981685;28;20806;-84
2023/01/02 07:54:19;;;;;;;3.47;1.90;;;;;;;11.57;72.08;154330.75;4987364;28;20466;-84
2023/01/02 07:57:05;;;;;;;2.73;2.30;;;;;;;11.54;71.44;154323.03;4982237;28;20446;-84
2023/01/02 07:59:50;;;;;;;5.00;2.37;;;;;;;11.53;72.45;154320.41;4984777;28;20462;-84
2023/01/02 08:02:35;;;;;;;3.17;2.13;;;;;;;11.55;71.86;154326.88;4984732;28;20462;-84
2023/01/02 08:05:22;;;;;;;3.87;1.97;;;;;;;11.57;72.41;154332.06;4981423;28;20521;-84
2023/01/02 08:08:08;;;;;;;4.80;2.10;;;;;;;11.61;70.30;154342.44;4986699;28;20580;-84
2023/01/02 08:10:53;;;;;;;3.20;1.50;;;;;;;11.63;72.70;154346.31;4985742;28;20442;-84
2023/01/02 08:13:38;;;;;;;5.60;2.07;;;;;;;11.64;73.70;154348.94;4985071;28;21024;-84
2023/01/02 08:16:24;;;;;;;3.60;2.27;;;;;;;11.60;74.08;154338.53;4989038;28;21054;-84
2023/01/02 08:19:10;;;;;;;3.50;2.40;;;;;;;11.58;72.94;154334.66;4990145;28;20451;-84
2023/01/02 08:21:57;;;;;;;4.50;2.00;;;;;;;11.60;73.39;154338.53;4989436;28;20627;-84
2023/01/02 08:24:42;;;;;;;2.87;2.03;;;;;;;11.62;72.25;154343.75;4988300;28;20454;-84
2023/01/02 08:27:27;;;;;;;5.73;1.90;;;;;;;11.67;71.33;154356.72;4989843;28;20938;-84
2023/01/02 08:30:13;;;;;;;5.00;2.40;;;;;;;11.69;72.77;154361.94;4990096;28;20441;-84
2023/01/02 08:32:59;;;;;;;4.83;2.33;;;;;;;11.72;70.47;154368.41;4986920;28;20494;-83
2023/01/02 08:35:45;;;;;;;4.27;2.00;;;;;;;11.78;70.36;154385.22;5001863;28;20446;-83
2023/01/02 08:38:32;;;;;;;6.47;2.50;;;;;;;11.82;69.49;154394.31;4997301;28;20465;-84
2023/01/02 08:41:31;;;;;;;2.70;1.90;;;;;;;11.83;70.91;154396.94;4987489;28;20524;-84
2023/01/02 08:44:16;;;;;;;4.00;2.80;;;;;;;11.90;69.96;154416.38;4986670;28;20443;-84
2023/01/02 08:47:02;;;;;;;2.43;1.83;;;;;;;11.89;71.91;154412.44;4984891;28;20450;-84
2023/01/02 08:49:47;;;;;;;5.67;2.23;;;;;;;11.94;69.85;154425.47;4986538;28;20517;-85
2023/01/02 08:52:32;;;;;;;4.67;1.80;;;;;;;12.09;69.39;154465.63;4994911;28;20951;-84
2023/01/02 08:55:20;;;;;;;5.20;2.40;;;;;;;12.05;70.34;154455.25;4984170;28;20474;-84
2023/01/02 08:58:06;;;;;;;2.80;1.67;;;;;;;12.06;69.02;154457.84;4983722;28;20547;-84
2023/01/02 09:00:52;;;;;;;2.77;1.90;;;;;;;12.09;70.20;154465.63;4987712;28;20610;-84
2023/01/02 09:03:37;;;;;;;3.50;2.00;;;;;;;12.15;69.92;154479.91;4984295;28;20881;-84
2023/01/02 09:06:24;;;;;;;2.90;1.90;;;;;;;12.20;68.73;154492.84;4989516;28;20549;-84
2023/01/02 09:09:10;;;;;;;2.70;2.00;;;;;;;12.23;69.15;154499.34;4980897;28;20455;-84
2023/01/02 09:11:59;;;;;;;3.93;2.00;;;;;;;12.23;68.01;154499.34;4983252;28;20486;-84
2023/01/02 09:14:44;;;;;;;3.00;2.00;;;;;;;12.25;71.07;154504.50;4987163;28;20973;-84
2023/01/02 09:17:30;;;;;;;4.20;2.30;;;;;;;12.19;69.77;154491.56;4986060;28;20573;-84
2023/01/02 09:20:16;;;;;;;4.70;2.10;;;;;;;12.17;69.56;154486.38;4983152;28;20455;-84
2023/01/02 09:23:01;;;;;;;2.63;1.70;;;;;;;12.16;71.11;154482.47;4982582;28;20479;-85
2023/01/02 09:25:46;;;;;;;2.73;1.90;;;;;;;12.12;71.22;154473.41;4983009;28;20518;-84
2023/01/02 09:28:35;;;;;;;3.60;2.47;;;;;;;12.14;69.30;154478.59;4983456;28;20454;-84
2023/01/02 09:31:20;;;;;;;3.63;2.33;;;;;;;12.20;69.22;154494.13;4980751;28;20444;-84
2023/01/02 09:34:06;;;;;;;2.70;1.90;;;;;;;12.18;69.72;154488.94;4986237;28;20569;-85
2023/01/02 09:36:52;;;;;;;5.63;2.50;;;;;;;12.14;70.91;154478.59;4994426;28;20444;-85
2023/01/02 09:39:37;;;;;;;2.97;2.20;;;;;;;12.16;69.83;154483.78;4982296;28;20455;-85
2023/01/02 09:42:23;;;;;;;3.83;2.30;;;;;;;12.27;68.46;154509.69;4981480;28;20479;-85
2023/01/02 09:45:11;;;;;;;4.10;1.97;;;;;;;12.32;68.68;154522.66;4979413;28;20916;-85
2023/01/02 09:47:57;;;;;;;3.63;2.30;;;;;;;12.41;69.16;154546.00;4982030;28;20462;-85
2023/01/02 09:50:43;;;;;;;2.63;1.80;;;;;;;12.40;67.75;154544.69;4981424;28;20451;-85
2023/01/02 09:53:28;;;;;;;3.50;2.20;;;;;;;12.43;67.91;154551.19;4981963;28;20575;-85
2023/01/02 09:56:19;;;;;;;3.17;1.80;;;;;;;12.44;68.83;154555.09;4981023;28;20450;-85
2023/01/02 09:59:09;;;;;;;2.20;1.40;;;;;;;12.47;67.67;154562.84;4993375;28;20485;-84
2023/01/02 10:02:03;;;;;;;2.23;1.93;;;;;;;12.53;69.22;154577.09;4982642;28;20603;-84
2023/01/02 10:04:59;;;;;;;4.53;1.87;;;;;;;12.57;67.29;154587.50;4982111;28;21178;-84
2023/01/02 10:07:48;;;;;;;2.63;1.80;;;;;;;12.65;65.67;154608.25;4984839;28;20449;-84
2023/01/02 10:10:37;;;;;;;3.00;2.00;;;;;;;12.68;65.32;154617.31;4984953;28;20479;-84
2023/01/02 10:13:28;;;;;;;3.73;2.47;;;;;;;12.72;66.77;154626.41;4984334;28;20566;-84
2023/01/02 10:16:17;;;;;;;3.63;2.20;;;;;;;12.83;67.01;154656.25;4987922;28;20587;-84
2023/01/02 10:19:07;;;;;;;7.37;2.50;;;;;;;12.84;64.70;154658.81;4985818;28;20459;-84
2023/01/02 10:21:57;;;;;;;3.17;2.07;;;;;;;12.96;65.75;154687.34;4978654;28;20467;-84
2023/01/02 10:24:46;;;;;;;4.57;1.80;;;;;;;12.98;64.05;154693.84;4982170;28;20995;-84
2023/01/02 10:27:37;;;;;;;4.80;2.30;;;;;;;13.06;63.67;154714.59;4979574;28;20451;-84
2023/01/02 10:30:24;;;;;;;2.87;1.73;;;;;;;13.11;64.36;154727.63;4979743;28;20861;-83
2023/01/02 10:33:15;;;;;;;3.73;1.87;;;;;;;13.19;62.61;154747.06;4981694;28;21050;-83
2023/01/02 10:36:02;;;;;;;3.13;2.23;;;;;;;13.19;62.66;154748.38;4980952;28;20796;-84
2023/01/02 10:38:47;;;;;;;3.97;2.00;;;;;;;13.17;68.83;154743.22;4985923;28;20455;-84
2023/01/02 10:41:36;;;;;;;5.10;2.17;;;;;;;13.17;64.09;154741.91;4980575;28;20466;-84
2023/01/02 10:44:25;;;;;;;5.90;2.30;;;;;;;13.22;63.17;154756.19;4979855;28;20503;-84
2023/01/02 10:47:18;;;;;;;3.50;1.97;;;;;;;13.27;63.32;154769.13;4984015;28;20438;-84
2023/01/02 10:50:06;;;;;;;3.97;2.00;;;;;;;13.32;64.47;154782.13;4981334;28;20594;-84
2023/01/02 10:52:54;;;;;;;4.97;2.20;;;;;;;13.35;61.89;154788.59;4995662;28;20822;-84
2023/01/02 10:55:41;;;;;;;5.83;2.50;;;;;;;13.41;62.41;154805.50;4993670;28;20450;-84
2023/01/02 10:58:28;;;;;;;4.10;1.77;;;;;;;13.49;61.70;154823.66;4983727;28;20452;-84
2023/01/02 11:01:17;;;;;;;3.50;1.90;;;;;;;13.58;61.25;154847.03;4991103;28;20592;-84
2023/01/02 11:04:11;;;;;;;4.13;2.30;;;;;;;13.55;61.34;154839.22;4979787;28;20461;-84
2023/01/02 11:06:57;;;;;;;3.60;2.17;;;;;;;13.56;64.04;154841.78;4980536;28;20463;-84
2023/01/02 11:09:54;;;;;;;4.23;2.57;;;;;;;13.54;61.87;154836.63;4983798;28;20589;-84
2023/01/02 11:12:47;;;;;;;4.13;2.23;;;;;;;13.55;61.69;154839.22;4984589;28;20455;-84
2023/01/02 11:15:33;;;;;;;5.00;2.27;;;;;;;13.58;61.07;154848.28;4986106;28;20528;-84
2023/01/02 11:18:22;;;;;;;3.63;2.03;;;;;;;13.61;60.61;154854.81;4984472;28;20474;-84
2023/01/02 11:21:08;;;;;;;4.43;2.23;;;;;;;13.66;60.67;154867.78;4984361;28;20485;-83
2023/01/02 11:23:58;;;;;;;6.30;2.60;;;;;;;13.79;65.20;154901.53;4985614;28;20450;-84
2023/01/02 11:26:46;;;;;;;6.60;2.27;;;;;;;13.78;61.23;154900.22;4990589;28;20512;-84
2023/01/02 11:29:33;;;;;;;3.10;2.20;;;;;;;13.80;62.98;154904.09;5000424;28;20466;-84
2023/01/02 11:32:22;;;;;;;3.60;1.97;;;;;;;13.87;63.21;154922.31;4984776;28;20533;-84
2023/01/02 11:35:33;;;;;;;4.40;1.90;;;;;;;13.80;62.46;154905.41;4985275;28;20487;-84
2023/01/02 11:38:20;;;;;;;5.77;3.13;;;;;;;13.77;61.31;154897.63;4989202;28;20548;-84
2023/01/02 11:41:08;;;;;;;8.97;3.53;;;;;;;13.92;59.70;154935.28;4986988;28;20455;-84
2023/01/02 11:43:56;;;;;;;7.10;2.63;;;;;;;13.95;60.49;154943.09;4984699;28;20450;-84
2023/01/02 11:46:42;;;;;;;4.80;1.80;;;;;;;13.95;60.20;154944.34;4985288;28;20522;-84
2023/01/02 11:49:31;;;;;;;6.83;2.23;;;;;;;14.05;63.56;154969.03;4985386;28;20464;-84
2023/01/02 11:52:19;;;;;;;3.60;2.20;;;;;;;14.11;61.72;154984.59;4984472;28;20532;-83
2023/01/02 11:55:12;;;;;;;4.13;1.93;;;;;;;14.15;60.52;154995.00;4990453;28;20786;-84
2023/01/02 11:58:00;;;;;;;8.93;2.43;;;;;;;14.13;60.21;154989.81;4989223;28;20468;-84
2023/01/02 12:00:51;;;;;;;4.03;1.90;;;;;;;14.19;60.24;155004.09;4986489;28;20455;-83
2023/01/02 12:03:36;;;;;;;4.20;2.23;;;;;;;14.32;58.77;155037.91;4988683;28;21012;-84
2023/01/02 12:06:24;;;;;;;4.80;2.33;;;;;;;14.34;59.64;155044.41;4989822;28;20452;-84
2023/01/02 12:09:11;;;;;;;4.30;2.30;;;;;;;14.32;59.40;155039.16;4984058;28;20443;-84
2023/01/02 12:12:17;;;;;;;12.20;2.13;;;;;;;14.29;60.14;155031.38;4984215;28;20783;-84
2023/01/02 12:15:23;;;;;;;5.10;2.20;;;;;;;14.28;60.11;155028.75;4986500;28;20617;-84
2023/01/02 12:18:18;;;;;;;5.30;2.00;;;;;;;14.22;60.62;155013.16;4985891;28;20463;-84
2023/01/02 12:21:07;;;;;;;8.23;2.70;;;;;;;14.24;61.10;155018.38;4983655;28;20489;-84
2023/01/02 12:24:06;;;;;;;2.93;1.93;;;;;;;14.23;60.21;155015.78;4981951;28;20533;-84
2023/01/02 12:26:56;;;;;;;4.30;2.20;;;;;;;14.25;59.65;155020.94;4981254;28;20541;-84
2023/01/02 12:29:53;;;;;;;6.10;2.40;;;;;;;14.29;59.07;155031.38;4984383;28;21093;-84
2023/01/02 12:32:57;;;;;;;2.30;1.60;;;;;;;14.26;59.89;155022.25;4981816;28;20954;-84
2023/01/02 12:35:55;;;;;;;5.93;2.20;;;;;;;14.33;59.01;155041.78;4988721;28;20495;-84
2023/01/02 12:38:56;;;;;;;3.70;2.00;;;;;;;14.31;59.56;155035.25;4999492;28;20451;-84
2023/01/02 12:41:47;;;;;;;3.87;1.80;;;;;;;14.31;59.35;155035.25;5002000;28;20522;-84
2023/01/02 12:44:46;;;;;;;4.17;2.30;;;;;;;14.35;60.13;155046.97;4989184;28;20503;-84
2023/01/02 12:47:50;;;;;;;8.83;2.93;;;;;;;14.35;60.60;155046.97;4984717;28;21059;-83
2023/01/02 12:50:53;;;;;;;8.57;2.20;;;;;;;14.35;60.66;155045.72;4981810;28;20513;-84
2023/01/02 12:53:52;;;;;;;5.03;1.80;;;;;;;14.40;60.61;155058.69;4985076;28;20497;-84
2023/01/02 12:56:43;;;;;;;3.90;2.03;;;;;;;14.41;62.14;155062.56;4981247;28;20964;-84
2023/01/02 12:59:49;;;;;;;6.03;2.80;;;;;;;14.40;60.82;155058.69;4979547;28;20484;-84
2023/01/02 13:02:47;;;;;;;4.73;2.20;;;;;;;14.46;59.33;155075.53;4984660;28;20470;-84